^^
Datos históricos de la estación: Murcia-Puente Tocinos
Diario Informe para Septiembre 14, 2019 Unidades:  Métrico    Ingés   Ambas
Diario Semanal Mensual Anual
  Máxima: Mínima: Promedio:
Temperatura: 28.3 °C 11.8 °C 20.1 °C
Punto de rocio: 10.8 °C 2.4 °C 6 °C
Humedad: 76% 21% 44%
Velocidad viento: 23.3km/h 0km/h 8.2km/h
Racha viento: 42.6km/h - -
Viento- - SSO
Presión: 1017.2 hPa 1011.5 hPa -
Precipitación: 0.0 mm    
 
 
Tabla de datos para Septiembre 14, 2019
Hora Temperatura Punto de rocio Presión Viento Velocidad viento Racha viento Humedad Intensidad lluvia(por hora) Nubes
00:04 15.3 °C 10.5 °C 1017.1 hPa NO 2.2 km/h 8 km/h 73% 0.0 mm
00:09 15.2 °C 10.6 °C 1017.1 hPa NNO 2.5 km/h 8 km/h 73.8% 0.0 mm
00:14 15.2 °C 10.6 °C 1017.1 hPa NO 3.2 km/h 6.9 km/h 74% 0.0 mm
00:19 15.1 °C 10.5 °C 1017.2 hPa NO 3.4 km/h 8 km/h 74% 0.0 mm
00:24 15.1 °C 10.6 °C 1017.2 hPa ONO 3.9 km/h 8 km/h 74.6% 0.0 mm
00:29 15.1 °C 10.7 °C 1017.2 hPa ONO 3.5 km/h 6.4 km/h 75% 0.0 mm
00:34 15 °C 10.6 °C 1017.2 hPa ONO 2.9 km/h 4.8 km/h 75% 0.0 mm
00:39 15 °C 10.8 °C 1017.2 hPa NO 2 km/h 5.6 km/h 75.9% 0.0 mm
00:44 15 °C 10.8 °C 1017.2 hPa Calm   4.8 km/h 76% 0.0 mm
00:49 15 °C 10.8 °C 1017.2 hPa Calm   3.7 km/h 76% 0.0 mm
00:54 14.9 °C 10.7 °C 1017.1 hPa Calm   3.2 km/h 75.8% 0.0 mm
00:59 14.9 °C 10.7 °C 1017.1 hPa Calm     76% 0.0 mm
01:04 14.9 °C 10.7 °C 1017.1 hPa Calm   5.8 km/h 76% 0.0 mm
01:09 14.9 °C 10.7 °C 1017.0 hPa NO 0.8 km/h 6.4 km/h 75.8% 0.0 mm
01:14 15 °C 10.6 °C 1017.0 hPa NO 2.2 km/h 4.8 km/h 75% 0.0 mm
01:19 15 °C 10.6 °C 1017.0 hPa NO 1.5 km/h 5 km/h 75% 0.0 mm
01:24 15.1 °C 10.7 °C 1016.9 hPa Calm   5.6 km/h 75% 0.0 mm
01:29 15.1 °C 10.6 °C 1016.9 hPa Sur 1 km/h 5.6 km/h 74.5% 0.0 mm
01:34 15 °C 10.5 °C 1016.9 hPa Sur 2.9 km/h 4.8 km/h 74.5% 0.0 mm
01:39 14.9 °C 10.5 °C 1016.8 hPa Sur 2.7 km/h 5 km/h 75% 0.0 mm
01:44 14.9 °C 10.3 °C 1016.8 hPa Sur 2.2 km/h 5.6 km/h 74.1% 0.0 mm
01:49 14.9 °C 10.3 °C 1016.8 hPa Sur 2.5 km/h 7.6 km/h 73.9% 0.0 mm
01:54 14.9 °C 10.1 °C 1016.8 hPa Sur 2.9 km/h 8.4 km/h 73% 0.0 mm
01:59 14.9 °C 9.9 °C 1016.8 hPa SSE 3 km/h 8 km/h 71.9% 0.0 mm
02:04 14.8 °C 9.5 °C 1016.8 hPa Sur 3.2 km/h 9.3 km/h 70.6% 0.0 mm
02:09 14.8 °C 9.4 °C 1016.7 hPa SSO 4.1 km/h 9.7 km/h 70% 0.0 mm
02:14 14.8 °C 9.2 °C 1016.7 hPa SSO 5.8 km/h 9.7 km/h 68.9% 0.0 mm
02:19 14.8 °C 8.8 °C 1016.7 hPa SSO 6 km/h 9.7 km/h 67.6% 0.0 mm
02:24 14.8 °C 8.6 °C 1016.6 hPa SSO 6.5 km/h 11.1 km/h 66.5% 0.0 mm
02:29 14.8 °C 8.4 °C 1016.6 hPa SSO 6.6 km/h 11.3 km/h 65.6% 0.0 mm
02:34 14.8 °C 8.2 °C 1016.6 hPa SSO 6.9 km/h 11.3 km/h 64.8% 0.0 mm
02:39 14.8 °C 8.1 °C 1016.5 hPa SSO 6.8 km/h 11.3 km/h 64.3% 0.0 mm
02:44 14.8 °C 8.1 °C 1016.5 hPa SSO 6.5 km/h 11.1 km/h 64% 0.0 mm
02:49 14.7 °C 8 °C 1016.5 hPa SO 6.2 km/h 11.3 km/h 64% 0.0 mm
02:54 14.7 °C 8 °C 1016.2 hPa SO 5.8 km/h 9.7 km/h 64% 0.0 mm
02:59 14.7 °C 8 °C 1016.2 hPa SO 5 km/h 8 km/h 64% 0.0 mm
03:04 14.7 °C 7.9 °C 1016.2 hPa SSO 3.9 km/h 9.5 km/h 64% 0.0 mm
03:09 14.7 °C 7.9 °C 1016.1 hPa SSO 4.3 km/h 9.7 km/h 63.6% 0.0 mm
03:14 14.7 °C 7.9 °C 1016.1 hPa SSO 5 km/h 11.1 km/h 64% 0.0 mm
03:19 14.6 °C 7.9 °C 1016.1 hPa SO 5.7 km/h 11.3 km/h 63.9% 0.0 mm
03:24 14.6 °C 7.7 °C 1015.9 hPa SO 6.9 km/h 11.3 km/h 63.3% 0.0 mm
03:29 14.6 °C 7.9 °C 1015.9 hPa SSE 6.2 km/h 8 km/h 64% 0.0 mm
03:34 14.3 °C 7.7 °C 1015.9 hPa SE 4.7 km/h 8 km/h 64.3% 0.0 mm
03:39 14.2 °C 7.7 °C 1015.7 hPa SSO 4.7 km/h 9.3 km/h 65% 0.0 mm
03:44 14.2 °C 7.7 °C 1015.7 hPa SSO 4.7 km/h 9.7 km/h 65% 0.0 mm
03:49 14.3 °C 7.6 °C 1015.7 hPa SSO 4.4 km/h 8.7 km/h 64.4% 0.0 mm
03:54 14.3 °C 7.5 °C 1015.6 hPa SSO 3.9 km/h 9.7 km/h 64% 0.0 mm
03:59 14.2 °C 7.4 °C 1015.6 hPa SO 4.7 km/h 13 km/h 63.6% 0.0 mm
04:04 14.2 °C 7.3 °C 1015.6 hPa SO 5.8 km/h 12.9 km/h 63% 0.0 mm
04:09 14.2 °C 7.3 °C 1015.6 hPa SO 6.2 km/h 11.3 km/h 63% 0.0 mm
04:14 14.2 °C 7.1 °C 1015.6 hPa SO 6.9 km/h 13 km/h 62.3% 0.0 mm
04:19 14.1 °C 6.9 °C 1015.6 hPa SO 6.9 km/h 12.9 km/h 62% 0.0 mm
04:24 14 °C 6.9 °C 1015.6 hPa SO 6.9 km/h 11.3 km/h 62.7% 0.0 mm
04:29 13.9 °C 6.9 °C 1015.6 hPa SO 6.6 km/h 11.9 km/h 62.8% 0.0 mm
04:34 13.7 °C 6.4 °C 1015.6 hPa SSO 5.8 km/h 11.3 km/h 61.3% 0.0 mm
04:39 13.6 °C 6.2 °C 1015.5 hPa OSO 5.8 km/h 11.3 km/h 61.1% 0.0 mm
04:44 13.4 °C 6.3 °C 1015.5 hPa OSO 5.8 km/h 9.7 km/h 62% 0.0 mm
04:49 13.3 °C 6.3 °C 1015.5 hPa OSO 5.4 km/h 8 km/h 62.3% 0.0 mm
04:54 13.3 °C 6.4 °C 1015.5 hPa OSO 4.7 km/h 8 km/h 63% 0.0 mm
04:59 13.2 °C 6.4 °C 1015.5 hPa SO 4.3 km/h 8 km/h 63.5% 0.0 mm
05:04 13.3 °C 6.4 °C 1015.6 hPa Sur 3.9 km/h 8.4 km/h 63% 0.0 mm
05:09 13.3 °C 6.4 °C 1015.6 hPa Sur 4.1 km/h 8 km/h 62.7% 0.0 mm
05:14 13.4 °C 6.3 °C 1015.6 hPa Sur 4.7 km/h 8 km/h 62.2% 0.0 mm
05:19 13.4 °C 6.4 °C 1015.6 hPa Sur 4.1 km/h 7.4 km/h 62.5% 0.0 mm
05:24 13.4 °C 6.3 °C 1015.6 hPa Sur 2.9 km/h 8 km/h 62% 0.0 mm
05:29 13.3 °C 6.3 °C 1015.6 hPa SSE 3.5 km/h 8.7 km/h 62.2% 0.0 mm
05:34 13.1 °C 6.2 °C 1015.6 hPa SSE 4.7 km/h 10 km/h 63% 0.0 mm
05:39 12.9 °C 6.2 °C 1015.5 hPa SSE 5 km/h 9.7 km/h 64% 0.0 mm
05:44 12.8 °C 6.1 °C 1015.5 hPa SSE 5.8 km/h 8 km/h 64% 0.0 mm
05:49 12.7 °C 6 °C 1015.5 hPa SSE 5.5 km/h 8.4 km/h 64% 0.0 mm
05:54 12.5 °C 6 °C 1015.5 hPa SSE 5 km/h 8.4 km/h 64.9% 0.0 mm
05:59 12.3 °C 5.9 °C 1015.5 hPa SSE 5 km/h 9.3 km/h 65.1% 0.0 mm
06:04 12.2 °C 6 °C 1015.5 hPa SSE 5 km/h 9.7 km/h 66% 0.0 mm
06:09 12.1 °C 6 °C 1015.5 hPa SSE 5.5 km/h 11.9 km/h 66.1% 0.0 mm
06:14 11.9 °C 6 °C 1015.5 hPa SSE 6.5 km/h 13 km/h 67% 0.0 mm
06:19 11.8 °C 5.9 °C 1015.6 hPa SSE 7.2 km/h 13.7 km/h 67% 0.0 mm
06:24 11.8 °C 5.9 °C 1015.6 hPa SSE 8.7 km/h 14.5 km/h 67% 0.0 mm
06:29 11.9 °C 5.7 °C 1015.6 hPa Sur 8.6 km/h 13 km/h 66% 0.0 mm
06:34 11.9 °C 5.7 °C 1015.6 hPa Sur 8.4 km/h 12.9 km/h 66% 0.0 mm
06:39 12 °C 5.8 °C 1015.6 hPa Sur 7.9 km/h 11.3 km/h 66% 0.0 mm
06:44 12.1 °C 5.9 °C 1015.6 hPa Sur 6.9 km/h 11.3 km/h 66% 0.0 mm
06:49 12.1 °C 5.9 °C 1015.6 hPa Sur 7.2 km/h 11.3 km/h 66% 0.0 mm
06:54 12.2 °C 5.9 °C 1015.6 hPa SSO 7.6 km/h 10 km/h 65.5% 0.0 mm
06:59 12.3 °C 5.9 °C 1015.6 hPa SSO 7.1 km/h 10 km/h 65% 0.0 mm
07:04 12.4 °C 5.9 °C 1015.6 hPa SO 6.5 km/h 11.9 km/h 64.6% 0.0 mm
07:09 12.5 °C 5.8 °C 1015.6 hPa SSO 6.8 km/h 13 km/h 63.8% 0.0 mm
07:14 12.6 °C 5.7 °C 1015.6 hPa SO 7.6 km/h 12.9 km/h 63% 0.0 mm
07:19 12.7 °C 5.7 °C 1015.7 hPa SO 7.3 km/h 11.9 km/h 62.5% 0.0 mm
07:24 12.8 °C 5.7 °C 1015.7 hPa SO 6.9 km/h 11.3 km/h 62% 0.0 mm
07:29 12.8 °C 5.5 °C 1015.7 hPa SSO 6.5 km/h 11.3 km/h 61% 0.0 mm
07:34 12.9 °C 5.6 °C 1015.7 hPa SSE 5.8 km/h 9.3 km/h 61% 0.0 mm
07:39 12.8 °C 5.6 °C 1015.7 hPa SSE 6 km/h 9.7 km/h 61.8% 0.0 mm
07:44 12.6 °C 5.7 °C 1015.7 hPa Sur 6.5 km/h 9.7 km/h 62.8% 0.0 mm
07:49 12.4 °C 5.7 °C 1015.8 hPa SSE 6.2 km/h 9.7 km/h 63.5% 0.0 mm
07:54 12.3 °C 5.7 °C 1015.8 hPa SSE 5.8 km/h 8.4 km/h 64% 0.0 mm
07:59 12.2 °C 5.7 °C 1015.8 hPa Sur 5.5 km/h 8 km/h 64.4% 0.0 mm
08:04 12.2 °C 5.8 °C 1015.9 hPa Sur 5 km/h 8 km/h 65% 0.0 mm
08:09 12.3 °C 5.9 °C 1015.9 hPa Sur 5 km/h 8.4 km/h 64.8% 0.0 mm
08:14 12.4 °C 6 °C 1015.9 hPa SSE 5 km/h 9.5 km/h 65% 0.0 mm
08:19 12.3 °C 5.9 °C 1016.0 hPa SSE 5 km/h 9.7 km/h 65% 0.0 mm
08:24 12.3 °C 5.9 °C 1016.0 hPa Sur 5 km/h 10 km/h 65% 0.0 mm
08:29 12.3 °C 5.9 °C 1016.0 hPa Sur 5.8 km/h 11.1 km/h 65% 0.0 mm
08:34 12.5 °C 5.9 °C 1016.0 hPa SSO 7.6 km/h 13 km/h 64.2% 0.0 mm
08:39 12.8 °C 5.9 °C 1016.0 hPa SSO 7.6 km/h 12.9 km/h 62.8% 0.0 mm
08:44 13.2 °C 6 °C 1016.0 hPa Sur 7.6 km/h 13 km/h 62% 0.0 mm
08:49 13.3 °C 6 °C 1016.0 hPa SSE 8 km/h 13 km/h 61% 0.0 mm
08:54 13.4 °C 5.9 °C 1015.9 hPa Sur 8.7 km/h 13 km/h 60.6% 0.0 mm
08:59 13.7 °C 6 °C 1015.9 hPa Sur 8.7 km/h 13 km/h 59.8% 0.0 mm
09:04 13.8 °C 6 °C 1016.0 hPa SSO 8.7 km/h 13 km/h 58.9% 0.0 mm
09:09 14.1 °C 5.9 °C 1016.0 hPa SSO 8.6 km/h 13 km/h 58% 0.0 mm
09:14 14.5 °C 6 °C 1016.0 hPa SSO 8.4 km/h 13.7 km/h 56.6% 0.0 mm
09:19 15 °C 6 °C 1016.1 hPa SSO 8.4 km/h 14.8 km/h 55.1% 0.0 mm
09:24 15.4 °C 6.1 °C 1016.1 hPa SSO 8.4 km/h 14.5 km/h 54% 0.0 mm
09:29 15.8 °C 6.2 °C 1016.1 hPa SSO 7.9 km/h 13 km/h 52.9% 0.0 mm
09:34 16.2 °C 6.1 °C 1016.1 hPa SSO 6.9 km/h 16.1 km/h 51.3% 0.0 mm
09:39 16.6 °C 6.1 °C 1016.1 hPa SSO 7.5 km/h 16.1 km/h 49.8% 0.0 mm
09:44 16.8 °C 6.1 °C 1016.1 hPa SSO 8.7 km/h 16.4 km/h 49.3% 0.0 mm
09:49 17.1 °C 6.2 °C 1016.1 hPa SO 8.6 km/h 16.7 km/h 48.8% 0.0 mm
09:54 17.3 °C 6.2 °C 1016.0 hPa SSO 8.4 km/h 16.7 km/h 48% 0.0 mm
09:59 17.6 °C 6.4 °C 1016.0 hPa SSO 8.5 km/h 16.1 km/h 47.9% 0.0 mm
10:04 17.8 °C 6.4 °C 1016.1 hPa SO 8.7 km/h 15.6 km/h 47.1% 0.0 mm
10:09 18 °C 6.5 °C 1016.1 hPa SO 9 km/h 16.1 km/h 47% 0.0 mm
10:14 18.3 °C 6.6 °C 1016.1 hPa SO 9.5 km/h 16.7 km/h 46.3% 0.0 mm
10:19 18.6 °C 6.6 °C 1016.1 hPa OSO 9.2 km/h 16.7 km/h 45.6% 0.0 mm
10:24 18.8 °C 6.6 °C 1016.1 hPa OSO 8.7 km/h 18.5 km/h 45% 0.0 mm
10:29 19 °C 6.6 °C 1016.1 hPa OSO 9.2 km/h 19.3 km/h 44.4% 0.0 mm
10:34 19.2 °C 6.7 °C 1016.1 hPa OSO 10.3 km/h 17.7 km/h 44% 0.0 mm
10:39 19.5 °C 6.7 °C 1016.1 hPa OSO 10 km/h 16.7 km/h 43.5% 0.0 mm
10:44 19.8 °C 6.8 °C 1016.1 hPa OSO 9.5 km/h 17.2 km/h 42.9% 0.0 mm
10:49 20 °C 6.7 °C 1016.2 hPa OSO 9.5 km/h 17.7 km/h 42% 0.0 mm
10:54 20.2 °C 6.6 °C 1016.2 hPa Oeste 9.5 km/h 16.4 km/h 41.2% 0.0 mm
10:59 20.4 °C 6.7 °C 1016.2 hPa Oeste 9.5 km/h 18 km/h 41% 0.0 mm
11:04 20.7 °C 6.4 °C 1016.2 hPa OSO 9.5 km/h 20.1 km/h 39.3% 0.0 mm
11:09 20.9 °C 6.3 °C 1016.1 hPa SO 9.8 km/h 20.9 km/h 38.6% 0.0 mm
11:14 21.1 °C 6 °C 1016.1 hPa OSO 10.3 km/h 19.3 km/h 37.4% 0.0 mm
11:19 21.2 °C 6.2 °C 1016.1 hPa SO 10 km/h 19.3 km/h 37.6% 0.0 mm
11:24 21.4 °C 6.1 °C 1015.9 hPa SO 9.5 km/h 14.5 km/h 37% 0.0 mm
11:29 21.7 °C 6.4 °C 1015.9 hPa SO 8.9 km/h 13 km/h 37% 0.0 mm
11:34 21.8 °C 6.2 °C 1016.0 hPa OSO 7.6 km/h 12.9 km/h 36.5% 0.0 mm
11:39 21.9 °C 6.2 °C 1016.0 hPa SO 7.2 km/h 13 km/h 36.1% 0.0 mm
11:44 22.2 °C 6.2 °C 1016.0 hPa SSO 6.5 km/h 18 km/h 35.6% 0.0 mm
11:49 22.4 °C 6.1 °C 1016.0 hPa OSO 7.7 km/h 19.3 km/h 34.8% 0.0 mm
11:54 22.5 °C 6.2 °C 1015.9 hPa SSO 10 km/h 19.3 km/h 34.9% 0.0 mm
11:59 22.8 °C 6.1 °C 1015.9 hPa OSO 9 km/h 14.5 km/h 34.1% 0.0 mm
12:04 23.1 °C 6 °C 1015.9 hPa Oeste 7.6 km/h 14.8 km/h 33.1% 0.0 mm
12:09 23.2 °C 5.9 °C 1015.7 hPa OSO 7.8 km/h 18 km/h 32.6% 0.0 mm
12:14 23.3 °C 5.9 °C 1015.7 hPa Oeste 8.4 km/h 19.3 km/h 32.4% 0.0 mm
12:19 23.5 °C 5.9 °C 1015.7 hPa ONO 8.7 km/h 19.3 km/h 32% 0.0 mm
12:24 23.7 °C 5.9 °C 1015.4 hPa OSO 9.5 km/h 17.7 km/h 31.9% 0.0 mm
12:29 23.8 °C 5.7 °C 1015.4 hPa OSO 9.5 km/h 17.7 km/h 31.1% 0.0 mm
12:34 23.9 °C 5.7 °C 1015.4 hPa OSO 9.5 km/h 16.1 km/h 31% 0.0 mm
12:39 23.9 °C 5.7 °C 1015.3 hPa OSO 8.6 km/h 19 km/h 31% 0.0 mm
12:44 24.1 °C 5.9 °C 1015.3 hPa Oeste 6.9 km/h 19.3 km/h 31% 0.0 mm
12:49 24.2 °C 5.7 °C 1015.3 hPa OSO 7.8 km/h 20.9 km/h 30.5% 0.0 mm
12:54 24.4 °C 5.7 °C 1015.0 hPa ONO 9.5 km/h 20.9 km/h 30% 0.0 mm
12:59 24.7 °C 5.9 °C 1015.0 hPa Oeste 9.5 km/h 19.3 km/h 30% 0.0 mm
13:04 24.7 °C 5.8 °C 1015.0 hPa ONO 9.5 km/h 14.8 km/h 29.8% 0.0 mm
13:09 24.9 °C 5.7 °C 1014.8 hPa Oeste 9.2 km/h 18.3 km/h 29.2% 0.0 mm
13:14 25.1 °C 5.4 °C 1014.8 hPa Oeste 8.7 km/h 17.7 km/h 28.2% 0.0 mm
13:19 25.3 °C 5.3 °C 1014.8 hPa Oeste 8.6 km/h 16.7 km/h 27.7% 0.0 mm
13:24 25.3 °C 5.1 °C 1014.7 hPa ONO 8.4 km/h 17.2 km/h 27.2% 0.0 mm
13:29 25.4 °C 4.7 °C 1014.7 hPa NO 8.1 km/h 17.7 km/h 26.4% 0.0 mm
13:34 25.6 °C 4.6 °C 1014.7 hPa ONO 7.6 km/h 16.1 km/h 26% 0.0 mm
13:39 25.7 °C 4.7 °C 1014.6 hPa ONO 7.9 km/h 19 km/h 26% 0.0 mm
13:44 25.7 °C 4.8 °C 1014.6 hPa ONO 8.7 km/h 23.3 km/h 26.1% 0.0 mm
13:49 25.8 °C 4.8 °C 1014.6 hPa ONO 10 km/h 24.1 km/h 26% 0.0 mm
13:54 25.8 °C 4.8 °C 1014.4 hPa ONO 12.2 km/h 22.5 km/h 26% 0.0 mm
13:59 25.9 °C 4.9 °C 1014.4 hPa ONO 11.8 km/h 20.9 km/h 26% 0.0 mm
14:04 25.8 °C 4.9 °C 1014.4 hPa ONO 11.1 km/h 19.3 km/h 26% 0.0 mm
14:09 26.1 °C 5.1 °C 1014.2 hPa NO 9.8 km/h 19.3 km/h 26% 0.0 mm
14:14 26.2 °C 5 °C 1014.2 hPa NO 7.6 km/h 20.4 km/h 25.6% 0.0 mm
14:19 26.3 °C 4.7 °C 1014.2 hPa Oeste 7.6 km/h 20.9 km/h 25% 0.0 mm
14:24 26.5 °C 4.9 °C 1014.1 hPa ONO 7.6 km/h 12.9 km/h 25% 0.0 mm
14:29 26.8 °C 4.9 °C 1014.1 hPa ONO 6.6 km/h 13 km/h 24.6% 0.0 mm
14:34 26.9 °C 4.6 °C 1014.1 hPa Oeste 4.7 km/h 12.9 km/h 24% 0.0 mm
14:39 26.8 °C 4.6 °C 1013.9 hPa NNO 5 km/h 11.3 km/h 24% 0.0 mm
14:44 26.9 °C 4.6 °C 1013.9 hPa NE 5.8 km/h 11.3 km/h 24% 0.0 mm
14:49 27.2 °C 4.9 °C 1013.9 hPa NE 5.4 km/h 9.7 km/h 24.1% 0.0 mm
14:54 27.4 °C 5 °C 1013.6 hPa NNO 4.7 km/h 14.8 km/h 23.9% 0.0 mm
14:59 27.5 °C 4.5 °C 1013.6 hPa SO 5.4 km/h 14.8 km/h 23% 0.0 mm
15:04 27.6 °C 4.6 °C 1013.6 hPa Oeste 6.5 km/h 14 km/h 23% 0.0 mm
15:09 27.5 °C 4.5 °C 1013.5 hPa NO 6.5 km/h 14.8 km/h 23.1% 0.0 mm
15:14 27.3 °C 4.4 °C 1013.5 hPa NE 6.5 km/h 16.7 km/h 23.2% 0.0 mm
15:19 27.2 °C 4.2 °C 1013.5 hPa NNE 7.2 km/h 16.1 km/h 22.9% 0.0 mm
15:24 27.2 °C 4.3 °C 1013.2 hPa ENE 8.7 km/h 16.1 km/h 23% 0.0 mm
15:29 27.4 °C 4.4 °C 1013.2 hPa SE 8.3 km/h 14.8 km/h 23% 0.0 mm
15:34 27.6 °C 4 °C 1013.2 hPa SSE 7.6 km/h 14.5 km/h 22% 0.0 mm
15:39 27.6 °C 3.9 °C 1013.1 hPa Este 7.8 km/h 14.5 km/h 22% 0.0 mm
15:44 27.7 °C 4 °C 1013.1 hPa ESE 8.4 km/h 11.3 km/h 22% 0.0 mm
15:49 27.8 °C 4.2 °C 1013.1 hPa ESE 6.8 km/h 13.7 km/h 22.1% 0.0 mm
15:54 28 °C 4.3 °C 1012.7 hPa Este 3.9 km/h 20.4 km/h 22% 0.0 mm
15:59 27.9 °C 4.3 °C 1012.7 hPa ESE 6.6 km/h 20.9 km/h 22% 0.0 mm
16:04 28 °C 4.1 °C 1012.7 hPa Sur 10.3 km/h 22 km/h 21.7% 0.0 mm
16:09 28.1 °C 3.8 °C 1012.4 hPa Sur 11.2 km/h 22.5 km/h 21.1% 0.0 mm
16:14 28.1 °C 3.7 °C 1012.4 hPa SSO 13 km/h 22.5 km/h 21% 0.0 mm
16:19 28.3 °C 3.9 °C 1012.4 hPa SSE 13.2 km/h 31.5 km/h 21% 0.0 mm
16:24 27.9 °C 3.6 °C 1012.2 hPa Sur 13.7 km/h 32.2 km/h 21% 0.0 mm
16:29 27.7 °C 3.9 °C 1012.2 hPa SSE 16.6 km/h 35.2 km/h 21.8% 0.0 mm
16:34 27.6 °C 3.9 °C 1012.2 hPa SSE 22.1 km/h 35.4 km/h 21.9% 0.0 mm
16:39 27.8 °C 4.1 °C 1012.0 hPa Sur 21 km/h 31.5 km/h 22% 0.0 mm
16:44 27.6 °C 3.9 °C 1012.0 hPa Sur 19 km/h 33.3 km/h 22% 0.0 mm
16:49 27.5 °C 3.8 °C 1012.1 hPa SSE 19.6 km/h 33.8 km/h 21.8% 0.0 mm
16:54 27.3 °C 3.7 °C 1012.1 hPa Sur 20.9 km/h 35.9 km/h 22% 0.0 mm
16:59 27.3 °C 3.7 °C 1012.1 hPa SSE 21.3 km/h 35.4 km/h 22% 0.0 mm
17:04 27.3 °C 3.7 °C 1012.1 hPa SSE 21.7 km/h 33.8 km/h 22% 0.0 mm
17:09 27.2 °C 3.8 °C 1012.0 hPa SSE 21.8 km/h 34.3 km/h 22.2% 0.0 mm
17:14 27.3 °C 4.1 °C 1012.0 hPa SSE 22.1 km/h 35.2 km/h 22.6% 0.0 mm
17:19 27.2 °C 4.1 °C 1012.0 hPa Sur 22.1 km/h 37 km/h 22.7% 0.0 mm
17:24 26.9 °C 4 °C 1012.0 hPa SSE 22.1 km/h 37 km/h 23% 0.0 mm
17:29 26.8 °C 4 °C 1012.0 hPa Sur 22.5 km/h 37 km/h 23% 0.0 mm
17:34 26.9 °C 3.9 °C 1012.0 hPa Sur 23.3 km/h 42.3 km/h 22.8% 0.0 mm
17:39 26.8 °C 3.6 °C 1011.9 hPa SSE 22.8 km/h 42.6 km/h 22.4% 0.0 mm
17:44 26.8 °C 3.9 °C 1011.9 hPa SSE 21.7 km/h 38.6 km/h 23% 0.0 mm
17:49 26.8 °C 3.9 °C 1011.9 hPa SSE 21.8 km/h 38.9 km/h 23% 0.0 mm
17:54 26.7 °C 3.8 °C 1011.9 hPa Sur 22.1 km/h 38.6 km/h 23% 0.0 mm
17:59 26.6 °C 4.1 °C 1011.9 hPa Sur 22.6 km/h 35.2 km/h 23.5% 0.0 mm
18:04 26.7 °C 4.4 °C 1011.9 hPa SSE 23.3 km/h 35.4 km/h 24% 0.0 mm
18:09 26.8 °C 4 °C 1011.8 hPa Sur 21.7 km/h 35.2 km/h 23.1% 0.0 mm
18:14 26.8 °C 4.1 °C 1011.8 hPa Sur 18.4 km/h 35.4 km/h 23.3% 0.0 mm
18:19 26.7 °C 4.4 °C 1011.8 hPa Sur 19.2 km/h 35.4 km/h 24% 0.0 mm
18:24 26.4 °C 4.2 °C 1011.8 hPa SSE 20.9 km/h 35.4 km/h 23.9% 0.0 mm
18:29 26.3 °C 3.7 °C 1011.8 hPa SSE 21.2 km/h 30.9 km/h 23.4% 0.0 mm
18:34 26.3 °C 4.1 °C 1011.8 hPa SSE 21.7 km/h 32.2 km/h 24% 0.0 mm
18:39 26.4 °C 4.2 °C 1011.7 hPa Sur 20.5 km/h 32.2 km/h 24% 0.0 mm
18:44 26.5 °C 4.4 °C 1011.7 hPa SSE 18 km/h 28.2 km/h 24.2% 0.0 mm
18:49 26.4 °C 4.6 °C 1011.7 hPa SSE 17.8 km/h 29.6 km/h 24.7% 0.0 mm
18:54 26.2 °C 4.6 °C 1011.6 hPa SSE 17.2 km/h 29 km/h 25% 0.0 mm
18:59 26.3 °C 4.7 °C 1011.6 hPa SSE 16.9 km/h 27.4 km/h 25% 0.0 mm
19:04 26.5 °C 4.9 °C 1011.6 hPa SSE 16.4 km/h 25.1 km/h 25% 0.0 mm
19:09 26.4 °C 4.8 °C 1011.5 hPa SSE 15.3 km/h 29.6 km/h 25% 0.0 mm
19:14 26.3 °C 4.7 °C 1011.5 hPa SSE 13 km/h 29.6 km/h 25.2% 0.0 mm
19:19 26.2 °C 5.1 °C 1011.5 hPa SSE 13.2 km/h 24.1 km/h 25.9% 0.0 mm
19:24 26.2 °C 4.9 °C 1011.5 hPa SSE 13.7 km/h 25.9 km/h 25.7% 0.0 mm
19:29 26 °C 4.6 °C 1011.5 hPa SSE 13.8 km/h 25.9 km/h 25.3% 0.0 mm
19:34 25.9 °C 4.9 °C 1011.6 hPa SSE 14 km/h 24.1 km/h 26% 0.0 mm
19:39 25.8 °C 4.8 °C 1011.6 hPa SE 14 km/h 24.1 km/h 26% 0.0 mm
19:44 25.7 °C 4.9 °C 1011.6 hPa SE 14 km/h 24.1 km/h 26.3% 0.0 mm
19:49 25.6 °C 5.1 °C 1011.6 hPa SE 13.3 km/h 20.9 km/h 26.9% 0.0 mm
19:54 25.6 °C 4.9 °C 1011.6 hPa SSE 11.9 km/h 18.5 km/h 26.4% 0.0 mm
19:59 25.6 °C 5.2 °C 1011.6 hPa SSE 10.5 km/h 19.3 km/h 27% 0.0 mm
20:04 25.6 °C 5 °C 1011.7 hPa SSE 8.7 km/h 11.9 km/h 26.6% 0.0 mm
20:09 25.5 °C 4.6 °C 1011.7 hPa Sur 7.9 km/h 11.3 km/h 26% 0.0 mm
20:14 25.3 °C 4.5 °C 1011.7 hPa Sur 6.5 km/h 13.7 km/h 26% 0.0 mm
20:19 25.2 °C 4.3 °C 1011.8 hPa SSE 7.1 km/h 16.7 km/h 26% 0.0 mm
20:24 25 °C 4.1 °C 1011.8 hPa Sur 8.4 km/h 16.7 km/h 26% 0.0 mm
20:29 24.8 °C 3.9 °C 1011.8 hPa SSE 9 km/h 16.7 km/h 25.9% 0.0 mm
20:34 24.7 °C 4.3 °C 1012.0 hPa SE 10.3 km/h 16.1 km/h 26.8% 0.0 mm
20:39 24.5 °C 4.3 °C 1012.0 hPa SSE 8.8 km/h 11.3 km/h 27% 0.0 mm
20:44 24.3 °C 3.6 °C 1012.0 hPa SSE 5.8 km/h 13 km/h 26.1% 0.0 mm
20:49 24.2 °C 3.6 °C 1012.4 hPa Sur 5.8 km/h 12.9 km/h 26.2% 0.0 mm
20:54 24.2 °C 3.6 °C 1012.4 hPa Sur 5.8 km/h 8 km/h 26.3% 0.0 mm
20:59 24.1 °C 3.9 °C 1012.4 hPa SSO 4.3 km/h 5.6 km/h 27% 0.0 mm
21:04 23.8 °C 4.2 °C 1012.5 hPa SO 2.2 km/h 4.8 km/h 28% 0.0 mm
21:09 23.7 °C 3.9 °C 1012.5 hPa SO 2.2 km/h 10 km/h 27.7% 0.0 mm
21:14 23.5 °C 3.1 °C 1012.5 hPa SSO 2.2 km/h 11.1 km/h 26.3% 0.0 mm
21:19 23.6 °C 3.1 °C 1012.6 hPa OSO 3.2 km/h 11.3 km/h 26.3% 0.0 mm
21:24 23.6 °C 2.8 °C 1012.6 hPa SO 5 km/h 8.4 km/h 25.7% 0.0 mm
21:29 23.6 °C 2.5 °C 1012.6 hPa SO 4.9 km/h 8.4 km/h 25.2% 0.0 mm
21:34 23.6 °C 2.4 °C 1012.7 hPa SO 4.7 km/h 8.4 km/h 25% 0.0 mm
21:39 23.6 °C 2.4 °C 1012.7 hPa OSO 4.8 km/h 8.7 km/h 25% 0.0 mm
21:44 23.6 °C 2.6 °C 1012.7 hPa Oeste 5 km/h 9.7 km/h 25.4% 0.0 mm
21:49 23.4 °C 2.8 °C 1012.9 hPa Oeste 5.3 km/h 9.7 km/h 26% 0.0 mm
21:54 23.3 °C 3.1 °C 1012.9 hPa ONO 5.8 km/h 8 km/h 26.7% 0.0 mm
21:59 23.1 °C 3.5 °C 1012.9 hPa ONO 4.7 km/h 8 km/h 27.9% 0.0 mm
22:04 22.8 °C 4 °C 1013.2 hPa ONO 3.2 km/h 4.8 km/h 29.3% 0.0 mm
22:09 22.7 °C 4.4 °C 1013.2 hPa ONO 2.1 km/h 6.4 km/h 30.5% 0.0 mm
22:14 22.5 °C 4.9 °C 1013.2 hPa Calm   8 km/h 32% 0.0 mm
22:19 22.3 °C 4.9 °C 1013.4 hPa Oeste 0.7 km/h 8 km/h 32.2% 0.0 mm
22:24 22.2 °C 5.2 °C 1013.4 hPa Oeste 2.2 km/h 7.6 km/h 33% 0.0 mm
22:29 22.1 °C 5.3 °C 1013.4 hPa SO 3.1 km/h 8 km/h 33.5% 0.0 mm
22:34 22.1 °C 5.7 °C 1013.5 hPa SSO 4.7 km/h 10 km/h 34.5% 0.0 mm
22:39 21.9 °C 6.1 °C 1013.5 hPa SO 4.8 km/h 10 km/h 35.7% 0.0 mm
22:44 21.8 °C 6.3 °C 1013.5 hPa SSO 5 km/h 11.1 km/h 36.7% 0.0 mm
22:49 21.7 °C 6.6 °C 1013.5 hPa Sur 5.3 km/h 11.3 km/h 37.6% 0.0 mm
22:54 21.5 °C 6.8 °C 1013.5 hPa SSO 5.8 km/h 8.4 km/h 38.5% 0.0 mm
22:59 21.3 °C 6.9 °C 1013.5 hPa SSO 5.8 km/h 10 km/h 39.3% 0.0 mm
23:04 21.2 °C 7 °C 1013.5 hPa Sur 5.8 km/h 9.7 km/h 40% 0.0 mm
23:09 21.1 °C 7 °C 1013.4 hPa Sur 6 km/h 10.3 km/h 40% 0.0 mm
23:14 21 °C 7.2 °C 1013.4 hPa Sur 6.5 km/h 11.3 km/h 41% 0.0 mm
23:19 20.9 °C 7.2 °C 1013.5 hPa SE 6.2 km/h 11.3 km/h 41% 0.0 mm
23:24 20.8 °C 7.3 °C 1013.5 hPa SE 5.8 km/h 10 km/h 41.6% 0.0 mm
23:29 20.7 °C 7.4 °C 1013.5 hPa SSE 5.8 km/h 9.7 km/h 42.5% 0.0 mm
23:34 20.4 °C 7.4 °C 1013.6 hPa SE 5.8 km/h 9.7 km/h 43% 0.0 mm
23:39 20.3 °C 7.5 °C 1013.6 hPa SE 5.5 km/h 8.4 km/h 43.6% 0.0 mm
23:44 20.1 °C 7.6 °C 1013.6 hPa SE 5 km/h 10.3 km/h 44.4% 0.0 mm
23:49 19.8 °C 7.7 °C 1013.7 hPa SSE 5.6 km/h 13 km/h 45.4% 0.0 mm
23:54 19.7 °C 7.8 °C 1013.7 hPa Sur 6.9 km/h 13 km/h 46.3% 0.0 mm
23:59 19.6 °C 7.9 °C 1013.7 hPa Sur 7.7 km/h 13.7 km/h 47% 0.0 mm
Murcia-Puente Tocinos, España
Compliments of Weather Underground - 3 mb

La estación de MeteoMurcia.com, publica sus datos en los siguientes proyectos:

Weather Underground PWS IMURCIAP2 Meteoclimatic www.awekas.at

W3Counter
Web Analytics